Denver International, CO

9:07 AM MDT on October 24, 2014 (GMT -0600)
Centennial | Change Station
CLOSE
Current Station
Airport
Location: Denver Centennial,
Elevation: 5883 ft
Nearby Weather Stations

Elev 5883 ft 39.56 °N, 104.85 °W | Updated 14 minutes ago

Mostly Cloudy
Mostly Cloudy
61 °F
Feels Like 61 °F
N
12
Wind Variable Wind from WSW

Today
High -- | Low -- °F
--% Chance of Precip.
Yesterday
High -- | Low -- °F
Precip. -- in
7:18 AM 6:06 PM
New Moon, 1% visible
Pressure 30.11 in
Visibility 10.0 miles
Clouds Few 11000 ft
Few 15000 ft
Mostly Cloudy 20000 ft
Dew Point 24 °F
Humidity 24%
Rainfall 0.00 in
Snow Depth Not available.
UV 1 out of 12
Pollen 3.20 out of 12
Ozone Good
PM2.5 Moderate
Flu Activity Sporadic
METAR KAPA 241453Z 25010KT 10SM FEW110 FEW150 BKN200 16/M04 A3022 RMK AO2 SLP196 ACSL DSNT W-N T01611044 53012

More Conditions Fewer Conditions

Pressure 30.11 in
Visibility 10.0 miles
Clouds Few 11000 ft
Few 15000 ft
Mostly Cloudy 20000 ft
Dew Point 24 °F
Humidity 24%
Rainfall 0.00 in
Snow Depth Not available.
UV 1 out of 12
Pollen 3.20 out of 12
Ozone Good
PM2.5 Moderate
Flu Activity Sporadic
METAR KAPA 241453Z 25010KT 10SM FEW110 FEW150 BKN200 16/M04 A3022 RMK AO2 SLP196 ACSL DSNT W-N T01611044 53012

More Conditions Fewer Conditions

10-Day Weather Forecast

Almanac

Astronomy

Oct. 24, 2014 Rise Set
Actual Time 7:18 AM MDT 6:06 PM MDT
Civil Twilight 6:51 AM MDT 6:34 PM MDT
Nautical Twilight 6:19 AM MDT 7:05 PM MDT
Astronomical Twilight 5:48 AM MDT 7:36 PM MDT
Moon 8:00 AM MDT 6:48 PM MDT
Length of Visible Light 11h 42m
Length of Day
10h 47m
Tomorrow will be 2m 24s shorter.
New Moon, 1% of the Moon is Illuminated
Today
New Moon
Oct 30
First Quarter
Nov 6
Full
Nov 14
Last Quarter
Nov 22
New

Today's Extremes

State Highs State Lows

Community

WunderPhotos

Upload Photos

1,764,585 photos uploaded!

WunderBlogs® & News

Nearby

Air Quality

  Air Quality AQ Index Pollutant
Yesterday Good
OZONE
Yesterday Good
PM10
Current Moderate
PM2.5
Current Good
OZONE
Friday Good
OZONE
Friday Good
PM2.5

Snow Depth

Station Depth Elevation
Niwot 0 in 9910 ft
Lake Eldora 0 in 9700 ft
University Camp 0 in 10300 ft
Echo Lake 0 in 10600 ft
Copeland Lake 0 in 8600 ft

Earthquake Activity

City Distance Mag. Time & Date
No recent earthquake activity has been reported nearby.
Minimum magnitude displayed is 2.5.

Coastal Water Temperatures

Place Temperature
No Stations Reporting

Nearby Weather Stations